Time;durP1;ratioP1;P1;durP2;ratioP2;P2;SDS_P1;SDS_P2;PMS_P1;PMS_P2;Temp;Humidity;BMP_temperature;BMP_pressure;BME280_temperature;BME280_humidity;BME280_pressure;Samples;Min_cycle;Max_cycle;Signal;HPM_P1;HPM_P2
2023/07/02 03:01:30;;;;;;;2.65;1.20;;;24.40;49.80;;;;;;5419448;23;46011;-58
2023/07/02 03:03:58;;;;;;;3.95;1.30;;;24.30;49.70;;;;;;4966204;28;45372;-59
2023/07/02 03:06:24;;;;;;;3.67;1.13;;;24.40;49.70;;;;;;4976940;28;45313;-59
2023/07/02 03:08:49;;;;;;;2.92;1.38;;;24.30;49.50;;;;;;4985105;28;45291;-56
2023/07/02 03:11:15;;;;;;;1.55;1.20;;;24.30;49.50;;;;;;4978819;28;45502;-57
2023/07/02 03:13:40;;;;;;;1.52;1.10;;;24.30;49.50;;;;;;4986956;28;45245;-55
2023/07/02 03:16:06;;;;;;;2.65;1.00;;;24.30;49.40;;;;;;4970491;28;45388;-61
2023/07/02 03:18:32;;;;;;;2.38;1.10;;;24.30;49.40;;;;;;4975829;28;48594;-55
2023/07/02 03:20:58;;;;;;;2.03;1.15;;;24.30;49.40;;;;;;4976354;28;45555;-55
2023/07/02 03:23:24;;;;;;;1.10;1.00;;;24.30;49.40;;;;;;4965083;28;45651;-54
2023/07/02 03:25:49;;;;;;;1.15;1.02;;;24.30;49.50;;;;;;4978565;28;45687;-58
2023/07/02 03:28:15;;;;;;;1.13;0.95;;;24.30;49.30;;;;;;4982040;28;46286;-56
2023/07/02 03:30:40;;;;;;;2.15;1.38;;;24.30;49.20;;;;;;4972689;28;45092;-58
2023/07/02 03:33:07;;;;;;;1.88;1.00;;;24.20;49.20;;;;;;4983806;28;45112;-56
2023/07/02 03:35:33;;;;;;;2.55;1.00;;;24.20;49.20;;;;;;4975497;28;45070;-59
2023/07/02 03:37:58;;;;;;;1.15;0.90;;;24.20;49.20;;;;;;4985564;28;46156;-57
2023/07/02 03:40:24;;;;;;;1.92;1.02;;;24.20;49.10;;;;;;4978273;28;45188;-59
2023/07/02 03:42:49;;;;;;;2.55;1.10;;;24.20;49.00;;;;;;4981966;28;45622;-59
2023/07/02 03:45:15;;;;;;;1.42;1.20;;;24.20;49.00;;;;;;4978256;28;44719;-54
2023/07/02 03:47:40;;;;;;;2.38;0.95;;;24.20;49.00;;;;;;4980124;28;45572;-57
2023/07/02 03:50:06;;;;;;;2.20;1.08;;;24.20;48.90;;;;;;4979844;28;45146;-63
2023/07/02 03:52:32;;;;;;;2.05;1.00;;;24.10;49.50;;;;;;4981522;28;45530;-60
2023/07/02 03:54:57;;;;;;;1.02;0.90;;;24.10;48.90;;;;;;4984361;28;45214;-56
2023/07/02 03:57:23;;;;;;;4.75;0.80;;;24.10;48.90;;;;;;4977639;28;45858;-57
2023/07/02 03:59:48;;;;;;;1.90;1.05;;;24.10;48.80;;;;;;4980149;28;45542;-59
2023/07/02 04:02:14;;;;;;;3.17;1.00;;;24.10;48.70;;;;;;4969697;28;45139;-57
2023/07/02 04:04:39;;;;;;;1.50;0.90;;;24.10;48.60;;;;;;4982233;28;45310;-58
2023/07/02 04:07:05;;;;;;;2.58;1.05;;;24.10;48.50;;;;;;4977306;28;45904;-57
2023/07/02 04:09:32;;;;;;;2.13;1.00;;;24.10;48.50;;;;;;4985514;28;45249;-52
2023/07/02 04:11:59;;;;;;;1.45;1.00;;;24.10;48.40;;;;;;4980748;28;44873;-58
2023/07/02 04:14:24;;;;;;;1.58;0.80;;;24.10;48.40;;;;;;4986318;28;45130;-57
2023/07/02 04:16:50;;;;;;;2.05;1.00;;;24.10;48.40;;;;;;4978443;28;46146;-54
2023/07/02 04:19:16;;;;;;;2.22;0.88;;;24.00;48.20;;;;;;4983855;28;44732;-59
2023/07/02 04:21:41;;;;;;;2.80;1.20;;;24.00;48.20;;;;;;4984104;28;45316;-55
2023/07/02 04:24:07;;;;;;;1.33;0.73;;;24.00;48.20;;;;;;4985938;28;45223;-59
2023/07/02 04:26:32;;;;;;;1.30;1.08;;;23.90;48.10;;;;;;4961654;28;46065;-55
2023/07/02 04:28:58;;;;;;;1.10;0.88;;;23.90;48.10;;;;;;4985219;28;45855;-55
2023/07/02 04:31:24;;;;;;;1.60;0.88;;;24.00;48.10;;;;;;4975904;28;45545;-57
2023/07/02 04:33:50;;;;;;;1.77;1.00;;;23.90;47.90;;;;;;4984328;28;45811;-59
2023/07/02 04:36:15;;;;;;;4.68;1.10;;;24.00;47.80;;;;;;4978839;28;45478;-58
2023/07/02 04:38:41;;;;;;;1.35;0.70;;;23.90;47.70;;;;;;4987719;28;44687;-57
2023/07/02 04:41:06;;;;;;;1.85;1.20;;;24.00;47.70;;;;;;5000270;28;45637;-56
2023/07/02 04:43:33;;;;;;;4.45;1.00;;;23.90;47.60;;;;;;5008533;28;45266;-59
2023/07/02 04:45:58;;;;;;;2.17;1.20;;;23.90;47.50;;;;;;5009148;28;45332;-58
2023/07/02 04:48:24;;;;;;;3.80;1.17;;;23.90;47.50;;;;;;4990691;28;45140;-55
2023/07/02 04:50:49;;;;;;;1.95;1.13;;;23.90;47.50;;;;;;5010034;28;45318;-54
2023/07/02 04:53:15;;;;;;;1.70;1.02;;;23.80;47.50;;;;;;5008538;28;44645;-59
2023/07/02 04:55:41;;;;;;;1.65;1.10;;;23.80;47.40;;;;;;5003249;28;45994;-54
2023/07/02 04:58:07;;;;;;;1.10;0.70;;;23.80;47.30;;;;;;5010668;28;45222;-59
2023/07/02 05:00:32;;;;;;;3.42;0.95;;;23.90;47.30;;;;;;4999797;28;45179;-58
2023/07/02 05:02:58;;;;;;;2.05;1.08;;;23.90;47.30;;;;;;5010477;28;44860;-59
2023/07/02 05:05:23;;;;;;;1.60;0.73;;;23.80;47.30;;;;;;5004942;28;45953;-54
2023/07/02 05:07:49;;;;;;;2.60;1.00;;;23.90;47.30;;;;;;5010917;28;45115;-58
2023/07/02 05:10:14;;;;;;;2.10;1.45;;;23.80;47.30;;;;;;5008454;28;45258;-54
2023/07/02 05:12:40;;;;;;;2.20;1.20;;;23.80;47.30;;;;;;5010097;28;46765;-60
2023/07/02 05:15:06;;;;;;;2.00;1.10;;;23.80;47.40;;;;;;5009895;28;46850;-60
2023/07/02 05:17:34;;;;;;;2.00;0.95;;;23.80;47.30;;;;;;5005586;28;45088;-58
2023/07/02 05:20:00;;;;;;;1.83;1.08;;;23.90;47.30;;;;;;5010417;28;45417;-54
2023/07/02 05:22:26;;;;;;;3.95;1.42;;;23.90;47.30;;;;;;5008401;28;44926;-55
2023/07/02 05:24:52;;;;;;;3.33;1.30;;;23.90;47.20;;;;;;5015249;28;45978;-57
2023/07/02 05:27:17;;;;;;;5.25;1.70;;;23.90;47.20;;;;;;5004843;28;45818;-54
2023/07/02 05:29:43;;;;;;;3.88;1.70;;;23.90;47.20;;;;;;5005651;28;45477;-55
2023/07/02 05:32:08;;;;;;;2.60;1.63;;;23.90;47.00;;;;;;5002441;28;45170;-59
2023/07/02 05:34:34;;;;;;;3.38;1.85;;;23.90;46.90;;;;;;5016625;28;46329;-55
2023/07/02 05:37:00;;;;;;;4.97;2.55;;;23.90;46.80;;;;;;5002821;28;45062;-57
2023/07/02 05:39:25;;;;;;;4.78;2.10;;;23.90;46.80;;;;;;4999182;28;44921;-56
2023/07/02 05:41:51;;;;;;;4.22;2.50;;;23.90;46.70;;;;;;5006395;28;45029;-55
2023/07/02 05:44:16;;;;;;;3.40;2.15;;;23.90;46.60;;;;;;5012131;28;45684;-55
2023/07/02 05:46:42;;;;;;;4.18;1.98;;;23.90;46.60;;;;;;4994051;28;44649;-54
2023/07/02 05:49:08;;;;;;;3.97;2.10;;;23.90;46.70;;;;;;5010404;28;45316;-56
2023/07/02 05:51:33;;;;;;;3.38;2.33;;;23.90;46.70;;;;;;4994557;28;45166;-56
2023/07/02 05:53:59;;;;;;;3.20;2.03;;;23.90;46.70;;;;;;5008112;28;45954;-52
2023/07/02 05:56:24;;;;;;;4.70;2.33;;;23.90;46.60;;;;;;5006253;28;45325;-53
2023/07/02 05:58:50;;;;;;;4.20;2.42;;;23.90;46.60;;;;;;5018955;28;45529;-57
2023/07/02 06:01:15;;;;;;;6.05;3.03;;;23.90;46.40;;;;;;4998128;28;45657;-56
2023/07/02 06:03:42;;;;;;;5.53;3.00;;;23.90;46.30;;;;;;5004206;28;45962;-52
2023/07/02 06:06:08;;;;;;;6.18;3.13;;;24.00;46.30;;;;;;4986432;28;45229;-54
2023/07/02 06:08:34;;;;;;;5.25;3.15;;;24.00;46.10;;;;;;5009199;28;45258;-53
2023/07/02 06:10:59;;;;;;;6.03;3.30;;;23.90;45.70;;;;;;5001538;28;45447;-51
2023/07/02 06:13:25;;;;;;;5.88;3.65;;;24.00;45.40;;;;;;4991980;28;46155;-60
2023/07/02 06:15:50;;;;;;;5.78;3.85;;;24.00;45.20;;;;;;4984666;28;45436;-54
2023/07/02 06:18:17;;;;;;;6.03;3.60;;;24.00;45.00;;;;;;5003480;28;45978;-54
2023/07/02 06:20:43;;;;;;;7.07;3.78;;;24.00;44.90;;;;;;5010041;28;45282;-52
2023/07/02 06:23:08;;;;;;;6.50;3.95;;;24.00;44.70;;;;;;5009191;28;45876;-50
2023/07/02 06:25:34;;;;;;;6.88;4.35;;;24.00;44.60;;;;;;5008982;28;45203;-53
2023/07/02 06:27:59;;;;;;;6.35;3.78;;;24.00;44.50;;;;;;5007059;28;45189;-54
2023/07/02 06:30:25;;;;;;;5.60;4.00;;;24.00;44.50;;;;;;4984748;28;44716;-60
2023/07/02 06:32:50;;;;;;;5.80;4.38;;;24.00;44.40;;;;;;4988463;28;47502;-53
2023/07/02 06:35:16;;;;;;;6.55;4.10;;;24.00;44.20;;;;;;5001937;28;45161;-57
2023/07/02 06:37:42;;;;;;;6.60;4.32;;;24.00;44.10;;;;;;5002685;28;45277;-56
2023/07/02 06:40:08;;;;;;;6.05;3.78;;;24.00;44.00;;;;;;5006971;28;45361;-53
2023/07/02 06:42:35;;;;;;;7.72;4.20;;;24.00;44.00;;;;;;5007531;28;45995;-51
2023/07/02 06:45:01;;;;;;;9.15;4.82;;;24.00;43.90;;;;;;5016977;28;45353;-57
2023/07/02 06:47:27;;;;;;;9.70;4.28;;;24.10;43.80;;;;;;4997251;28;44991;-54
2023/07/02 06:49:52;;;;;;;8.90;4.78;;;24.10;43.70;;;;;;5015445;28;46255;-56
2023/07/02 06:52:18;;;;;;;10.70;4.80;;;24.00;43.60;;;;;;5007761;28;45303;-55
2023/07/02 06:54:43;;;;;;;7.63;4.57;;;24.10;43.50;;;;;;5012895;28;45505;-52
2023/07/02 06:57:09;;;;;;;7.53;4.43;;;24.10;43.30;;;;;;5013188;28;45363;-54
2023/07/02 06:59:34;;;;;;;7.13;4.47;;;24.10;43.00;;;;;;5016047;28;45359;-56
2023/07/02 07:02:01;;;;;;;7.40;4.43;;;24.10;42.90;;;;;;5003971;28;45265;-54
2023/07/02 07:04:28;;;;;;;7.32;4.40;;;24.10;42.80;;;;;;5011931;28;45215;-52
2023/07/02 07:06:55;;;;;;;7.55;4.78;;;24.00;42.50;;;;;;5011509;28;45012;-52
2023/07/02 07:09:21;;;;;;;6.88;4.85;;;24.00;42.40;;;;;;5013536;28;44771;-53
2023/07/02 07:11:47;;;;;;;8.15;4.22;;;23.90;42.20;;;;;;4999458;28;46397;-53
2023/07/02 07:14:12;;;;;;;6.45;4.30;;;24.00;42.30;;;;;;5016186;28;44921;-52
2023/07/02 07:16:38;;;;;;;10.32;5.15;;;23.90;42.30;;;;;;5006706;28;45805;-56
2023/07/02 07:19:03;;;;;;;9.82;5.35;;;24.00;42.30;;;;;;5012181;28;45114;-54
2023/07/02 07:21:29;;;;;;;9.70;5.13;;;23.90;42.20;;;;;;5001482;28;47240;-53
2023/07/02 07:23:54;;;;;;;8.20;4.80;;;23.90;42.30;;;;;;5020444;28;46149;-55
2023/07/02 07:26:20;;;;;;;13.30;5.43;;;23.90;42.40;;;;;;5009001;28;44951;-57
2023/07/02 07:28:45;;;;;;;10.13;4.95;;;23.90;42.30;;;;;;5012462;28;44756;-55
2023/07/02 07:31:11;;;;;;;9.68;5.47;;;23.90;42.30;;;;;;5004869;28;45292;-55
2023/07/02 07:33:36;;;;;;;8.68;4.70;;;24.00;42.30;;;;;;5013959;28;44984;-53
2023/07/02 07:36:02;;;;;;;8.00;4.95;;;24.00;42.20;;;;;;5004299;28;45286;-62
2023/07/02 07:38:27;;;;;;;9.38;5.28;;;24.00;42.80;;;;;;5003996;28;45426;-61
2023/07/02 07:40:53;;;;;;;9.98;4.97;;;23.90;42.10;;;;;;5007806;28;44994;-56
2023/07/02 07:43:18;;;;;;;8.07;4.90;;;23.90;42.20;;;;;;5015780;28;45273;-63
2023/07/02 07:45:44;;;;;;;8.77;4.78;;;23.90;42.30;;;;;;5006404;28;45110;-58
2023/07/02 07:48:09;;;;;;;6.32;4.03;;;23.90;42.20;;;;;;5011469;28;45332;-60
2023/07/02 07:50:35;;;;;;;9.63;4.47;;;23.90;42.20;;;;;;5005938;28;45996;-54
2023/07/02 07:53:00;;;;;;;11.57;4.65;;;23.90;42.20;;;;;;5018356;28;45256;-55
2023/07/02 07:55:26;;;;;;;7.25;4.18;;;23.90;42.20;;;;;;5009434;28;44740;-54
2023/07/02 07:57:52;;;;;;;7.50;4.40;;;23.90;42.80;;;;;;5016070;28;45518;-61
2023/07/02 08:00:18;;;;;;;6.82;4.10;;;23.90;42.10;;;;;;5004448;28;46075;-56
2023/07/02 08:02:45;;;;;;;7.53;4.45;;;23.90;42.00;;;;;;4990960;28;46574;-58
2023/07/02 08:05:10;;;;;;;6.45;4.35;;;23.80;42.10;;;;;;5005776;28;45064;-56
2023/07/02 08:07:36;;;;;;;6.63;3.88;;;23.80;42.10;;;;;;5006031;28;45553;-56
2023/07/02 08:10:02;;;;;;;5.47;3.40;;;23.80;42.10;;;;;;5006598;28;46020;-58
2023/07/02 08:12:29;;;;;;;6.30;3.88;;;23.80;42.10;;;;;;5002627;28;45300;-61
2023/07/02 08:14:55;;;;;;;7.35;3.88;;;23.80;42.10;;;;;;5015716;28;45455;-55
2023/07/02 08:17:20;;;;;;;5.28;3.92;;;23.80;42.10;;;;;;5002972;28;44994;-56
2023/07/02 08:19:46;;;;;;;7.78;3.90;;;23.90;42.30;;;;;;5017003;28;45867;-58
2023/07/02 08:22:12;;;;;;;9.07;3.60;;;23.90;42.30;;;;;;5008306;28;44963;-55
2023/07/02 08:24:38;;;;;;;7.78;3.40;;;23.90;42.30;;;;;;5014978;28;45534;-54
2023/07/02 08:27:04;;;;;;;5.70;3.28;;;23.80;42.20;;;;;;4993483;28;44940;-55
2023/07/02 08:29:32;;;;;;;6.53;3.30;;;23.90;42.20;;;;;;5014156;28;46306;-56
2023/07/02 08:31:58;;;;;;;5.78;3.40;;;23.90;42.20;;;;;;5006012;28;45951;-52
2023/07/02 08:34:23;;;;;;;5.18;2.88;;;23.90;42.10;;;;;;5015233;28;45313;-54
2023/07/02 08:36:49;;;;;;;6.18;3.28;;;23.90;42.20;;;;;;5007241;28;45401;-56
2023/07/02 08:39:15;;;;;;;5.65;3.50;;;23.90;42.20;;;;;;5016247;28;47562;-54
2023/07/02 08:41:48;;;;;;;5.85;3.35;;;23.90;42.00;;;;;;5009328;28;45292;-57
2023/07/02 08:44:14;;;;;;;6.05;3.00;;;23.90;41.80;;;;;;5017523;28;45001;-54
2023/07/02 08:46:41;;;;;;;5.05;3.08;;;23.90;41.90;;;;;;5006551;28;45630;-55
2023/07/02 08:49:07;;;;;;;5.07;2.92;;;24.00;42.00;;;;;;5018034;28;46277;-55
2023/07/02 08:51:32;;;;;;;6.05;3.33;;;24.00;41.90;;;;;;5011356;28;46684;-53
2023/07/02 08:53:58;;;;;;;10.63;3.30;;;24.00;41.90;;;;;;4995833;28;45263;-55
2023/07/02 08:56:23;;;;;;;4.53;2.80;;;24.00;41.90;;;;;;5014833;28;45606;-56
2023/07/02 08:58:49;;;;;;;6.18;3.20;;;24.00;41.80;;;;;;5018525;28;47212;-55
2023/07/02 09:01:15;;;;;;;8.07;3.33;;;24.00;41.80;;;;;;5005996;28;45593;-51
2023/07/02 09:03:41;;;;;;;4.40;2.95;;;24.00;41.90;;;;;;5013880;28;45707;-54
2023/07/02 09:06:08;;;;;;;7.38;3.15;;;24.00;42.00;;;;;;4994396;28;44874;-55
2023/07/02 09:08:33;;;;;;;4.53;2.97;;;24.10;41.90;;;;;;5010238;28;47578;-52
2023/07/02 09:11:12;;;;;;;6.03;3.10;;;24.10;41.90;;;;;;5012280;28;45010;-55
2023/07/02 09:13:52;;;;;;;7.35;2.80;;;24.10;41.60;;;;;;5010624;28;45492;-58
2023/07/02 09:16:27;;;;;;;5.88;3.13;;;24.20;41.60;;;;;;5003775;28;45524;-56
2023/07/02 09:18:59;;;;;;;5.65;3.13;;;24.20;41.60;;;;;;5012857;28;45952;-56
2023/07/02 09:21:45;;;;;;;8.93;2.97;;;24.20;41.50;;;;;;5000396;28;45274;-60
2023/07/02 09:24:17;;;;;;;5.70;3.38;;;24.20;41.70;;;;;;4995464;28;45696;-61
2023/07/02 09:26:44;;;;;;;4.07;2.53;;;24.20;41.60;;;;;;5005144;28;45447;-55
2023/07/02 09:29:09;;;;;;;3.88;2.65;;;24.20;41.50;;;;;;5015928;28;45918;-59
2023/07/02 09:31:45;;;;;;;9.55;3.08;;;24.20;41.40;;;;;;5004946;28;45506;-55
2023/07/02 09:34:11;;;;;;;3.72;2.60;;;24.20;41.00;;;;;;5014256;28;45436;-58
2023/07/02 09:36:40;;;;;;;5.07;3.30;;;24.30;41.30;;;;;;5010598;28;45292;-59
2023/07/02 09:39:11;;;;;;;4.07;2.63;;;24.30;41.30;;;;;;5016033;28;45318;-59
2023/07/02 09:41:36;;;;;;;6.70;3.05;;;24.30;41.20;;;;;;4984111;28;45645;-55
2023/07/02 09:44:02;;;;;;;7.53;3.58;;;24.30;41.20;;;;;;5013869;28;45970;-55
2023/07/02 09:46:28;;;;;;;5.15;3.15;;;24.30;41.10;;;;;;5004662;28;45762;-62
2023/07/02 09:48:53;;;;;;;5.53;2.90;;;24.30;41.10;;;;;;4975023;28;46956;-58
2023/07/02 09:51:19;;;;;;;7.65;3.30;;;24.30;41.10;;;;;;4990328;28;46063;-52
2023/07/02 09:53:44;;;;;;;3.47;2.40;;;24.40;41.70;;;;;;4991764;28;45423;-52
2023/07/02 09:56:10;;;;;;;6.80;2.72;;;24.40;41.00;;;;;;4991848;28;45472;-58
2023/07/02 09:58:35;;;;;;;6.65;2.85;;;24.40;41.00;;;;;;5010935;28;46022;-59
2023/07/02 10:01:01;;;;;;;4.38;3.00;;;24.40;40.90;;;;;;5002297;28;45955;-57
2023/07/02 10:03:31;;;;;;;5.70;2.97;;;24.40;40.80;;;;;;4980530;28;45369;-57
2023/07/02 10:06:04;;;;;;;4.05;2.97;;;24.40;40.60;;;;;;5011990;28;45309;-58
2023/07/02 10:08:30;;;;;;;;;;;24.40;40.60;;;;;;5011649;28;46260;-56
2023/07/02 10:11:15;;;;;;;5.55;3.30;;;24.40;40.30;;;;;;5012786;28;46305;-55
2023/07/02 10:13:41;;;;;;;5.88;3.05;;;24.40;40.60;;;;;;5013276;28;45222;-55
2023/07/02 10:16:07;;;;;;;6.20;3.22;;;24.40;40.80;;;;;;5008613;28;45428;-55
2023/07/02 10:18:32;;;;;;;5.03;3.58;;;24.40;40.80;;;;;;5012725;28;45695;-57
2023/07/02 10:20:58;;;;;;;8.65;3.67;;;24.40;40.80;;;;;;5008624;28;44705;-55
2023/07/02 10:23:34;;;;;;;7.07;4.05;;;24.50;40.90;;;;;;5000354;28;45534;-57
2023/07/02 10:26:19;;;;;;;4.57;3.38;;;24.50;40.50;;;;;;5013393;28;45200;-56
2023/07/02 10:28:59;;;;;;;6.75;3.40;;;24.50;40.50;;;;;;5014737;28;46722;-54
2023/07/02 10:31:25;;;;;;;4.50;2.92;;;24.50;40.10;;;;;;5005059;28;45487;-56
2023/07/02 10:33:51;;;;;;;8.88;3.58;;;24.50;40.40;;;;;;5019889;28;45351;-58
2023/07/02 10:36:20;;;;;;;4.35;3.03;;;24.60;40.20;;;;;;5015185;28;45285;-57
2023/07/02 10:38:46;;;;;;;5.38;2.70;;;24.60;39.80;;;;;;4998086;28;45893;-58
2023/07/02 10:41:12;;;;;;;4.53;2.95;;;24.60;39.70;;;;;;5011724;28;45376;-56
2023/07/02 10:43:38;;;;;;;5.53;3.05;;;24.70;39.70;;;;;;5018699;28;45246;-55
2023/07/02 10:46:04;;;;;;;6.70;3.38;;;24.70;39.70;;;;;;5006748;28;46123;-57
2023/07/02 10:48:30;;;;;;;4.20;3.10;;;24.70;39.60;;;;;;5014833;28;45905;-56
2023/07/02 10:50:56;;;;;;;6.38;3.00;;;24.70;39.60;;;;;;5008633;28;45332;-55
2023/07/02 10:53:21;;;;;;;5.40;3.45;;;24.80;39.60;;;;;;5015356;28;45422;-56
2023/07/02 10:55:55;;;;;;;5.05;2.78;;;24.80;39.40;;;;;;5010653;28;45049;-54
2023/07/02 10:58:20;;;;;;;;;;;24.80;39.00;;;;;;5021263;28;47084;-55
2023/07/02 11:00:46;;;;;;;4.43;2.33;;;24.80;38.20;;;;;;5002565;28;45242;-58
2023/07/02 11:03:22;;;;;;;3.47;2.65;;;24.80;39.10;;;;;;5004702;28;45239;-55
2023/07/02 11:05:48;;;;;;;4.53;2.80;;;24.80;38.40;;;;;;5006590;28;45302;-58
2023/07/02 11:08:14;;;;;;;4.75;3.05;;;24.80;38.80;;;;;;5019045;28;45466;-57
2023/07/02 11:10:39;;;;;;;4.53;3.10;;;24.80;38.70;;;;;;5010881;28;45454;-59
2023/07/02 11:13:13;;;;;;;4.30;2.78;;;24.80;38.60;;;;;;5014152;28;45595;-58
2023/07/02 11:15:39;;;;;;;6.22;3.13;;;24.90;38.20;;;;;;5006030;28;45198;-58
2023/07/02 11:18:09;;;;;;;5.63;3.40;;;25.00;38.60;;;;;;5004770;28;47093;-57
2023/07/02 11:20:35;;;;;;;5.53;3.53;;;24.90;38.40;;;;;;5005846;28;45952;-56
2023/07/02 11:23:00;;;;;;;5.18;3.28;;;24.90;38.50;;;;;;5013318;28;45365;-57
2023/07/02 11:25:26;;;;;;;7.60;3.65;;;25.00;38.50;;;;;;5013183;28;45627;-58
2023/07/02 11:28:02;;;;;;;5.47;3.50;;;25.00;38.50;;;;;;5016994;28;46020;-58
2023/07/02 11:30:27;;;;;;;5.30;3.53;;;25.10;38.00;;;;;;5006918;28;45498;-60
2023/07/02 11:32:53;;;;;;;3.50;2.67;;;25.10;38.30;;;;;;4988225;28;45297;-59
2023/07/02 11:35:20;;;;;;;4.50;2.78;;;25.10;38.30;;;;;;5003710;28;45091;-59
2023/07/02 11:37:46;;;;;;;4.55;3.13;;;25.10;38.20;;;;;;4996509;28;46217;-59
2023/07/02 11:40:13;;;;;;;4.88;3.20;;;25.10;38.20;;;;;;5009882;28;45579;-59
2023/07/02 11:42:38;;;;;;;4.68;3.03;;;25.10;38.00;;;;;;4997444;28;45326;-59
2023/07/02 11:45:04;;;;;;;12.27;3.67;;;25.20;37.80;;;;;;5014082;28;45379;-61
2023/07/02 11:47:30;;;;;;;5.40;3.30;;;25.20;37.60;;;;;;4987105;28;46074;-55
2023/07/02 11:49:55;;;;;;;7.07;3.50;;;25.20;37.10;;;;;;5011471;28;45114;-56
2023/07/02 11:52:21;;;;;;;7.40;3.72;;;25.20;37.10;;;;;;5014107;28;45270;-56
2023/07/02 11:54:48;;;;;;;10.30;4.30;;;25.20;36.70;;;;;;5015202;28;45178;-58
2023/07/02 11:57:13;;;;;;;4.55;3.28;;;25.30;36.60;;;;;;5007372;28;46054;-57
2023/07/02 11:59:39;;;;;;;5.85;3.85;;;25.30;36.50;;;;;;5014455;28;45330;-57
2023/07/02 12:02:04;;;;;;;6.75;4.18;;;25.40;36.40;;;;;;5002054;28;45184;-56
2023/07/02 12:04:30;;;;;;;5.38;3.67;;;25.40;36.40;;;;;;5017512;28;45354;-57
2023/07/02 12:06:55;;;;;;;7.97;4.53;;;25.40;36.10;;;;;;5008715;28;45238;-58
2023/07/02 12:09:21;;;;;;;8.18;4.18;;;25.40;36.00;;;;;;5016559;28;45249;-59
2023/07/02 12:11:47;;;;;;;6.45;4.20;;;25.40;36.00;;;;;;5007840;28;46126;-58
2023/07/02 12:14:12;;;;;;;7.22;4.63;;;25.40;35.80;;;;;;5014481;28;45585;-58
2023/07/02 12:16:38;;;;;;;8.43;5.15;;;25.50;35.90;;;;;;4998701;28;45243;-55
2023/07/02 12:19:03;;;;;;;9.32;4.93;;;25.50;35.80;;;;;;5003446;28;45815;-59
2023/07/02 12:21:29;;;;;;;8.80;5.18;;;25.50;35.70;;;;;;4996069;28;45388;-57
2023/07/02 12:23:55;;;;;;;6.28;4.70;;;25.50;35.60;;;;;;5010252;28;46178;-57
2023/07/02 12:26:20;;;;;;;7.68;5.10;;;25.50;35.50;;;;;;5010089;28;45853;-59
2023/07/02 12:28:46;;;;;;;9.13;5.70;;;25.50;35.30;;;;;;5011997;28;45424;-59
2023/07/02 12:31:12;;;;;;;8.45;5.38;;;25.50;35.30;;;;;;4997617;28;45719;-56
2023/07/02 12:33:38;;;;;;;8.70;5.47;;;25.50;35.20;;;;;;5013620;28;44963;-55
2023/07/02 12:36:04;;;;;;;9.52;5.85;;;25.50;35.10;;;;;;5011896;28;46206;-58
2023/07/02 12:38:29;;;;;;;12.45;5.63;;;25.50;35.30;;;;;;5013782;28;45376;-54
2023/07/02 12:40:55;;;;;;;9.93;6.72;;;25.50;35.20;;;;;;5002249;28;45533;-58
2023/07/02 12:43:21;;;;;;;11.15;6.13;;;25.60;35.20;;;;;;4980690;28;45932;-56
2023/07/02 12:45:47;;;;;;;11.52;5.45;;;25.60;35.30;;;;;;4985419;28;46446;-59
2023/07/02 12:48:12;;;;;;;8.75;5.30;;;25.60;35.20;;;;;;5013541;28;45898;-56
2023/07/02 12:50:39;;;;;;;7.97;5.65;;;25.60;35.10;;;;;;5004850;28;45285;-53
2023/07/02 12:53:05;;;;;;;10.55;6.25;;;25.60;35.00;;;;;;5014997;28;45320;-56
2023/07/02 12:55:30;;;;;;;11.50;6.03;;;25.60;35.10;;;;;;5008522;28;45944;-55
2023/07/02 12:57:56;;;;;;;10.18;5.90;;;25.60;35.00;;;;;;5013169;28;45458;-55
2023/07/02 13:00:22;;;;;;;10.68;6.80;;;25.70;35.10;;;;;;5005336;28;46031;-58
2023/07/02 13:02:47;;;;;;;9.65;6.07;;;25.70;35.00;;;;;;4990810;28;45353;-54
2023/07/02 13:05:13;;;;;;;9.80;6.00;;;25.70;34.90;;;;;;4993278;28;46067;-60
2023/07/02 13:07:39;;;;;;;11.10;7.05;;;25.70;34.80;;;;;;5012144;28;45048;-56
2023/07/02 13:10:05;;;;;;;9.90;6.22;;;25.70;34.70;;;;;;5014593;28;45551;-60
2023/07/02 13:12:30;;;;;;;11.10;6.75;;;25.80;34.70;;;;;;5011332;28;45532;-56
2023/07/02 13:14:56;;;;;;;11.02;7.20;;;25.80;34.70;;;;;;5007982;28;45503;-57
2023/07/02 13:17:22;;;;;;;12.13;7.20;;;25.80;34.60;;;;;;4993508;28;45659;-55
2023/07/02 13:19:48;;;;;;;11.40;6.90;;;25.80;35.30;;;;;;4990682;28;45548;-52
2023/07/02 13:22:14;;;;;;;12.20;7.15;;;25.80;34.60;;;;;;5004791;28;45193;-58
2023/07/02 13:24:40;;;;;;;10.32;7.10;;;25.80;34.70;;;;;;5014412;28;45897;-56
2023/07/02 13:27:15;;;;;;;14.27;7.18;;;25.80;34.60;;;;;;5006374;28;44897;-56
2023/07/02 13:29:41;;;;;;;15.20;6.97;;;25.80;34.50;;;;;;5012531;28;45493;-58
2023/07/02 13:32:07;;;;;;;12.05;7.05;;;25.90;34.50;;;;;;5004339;28;45799;-53
2023/07/02 13:34:32;;;;;;;14.02;7.38;;;25.90;34.40;;;;;;5014137;28;46020;-56
2023/07/02 13:36:58;;;;;;;12.10;7.88;;;25.90;34.20;;;;;;5009620;28;46180;-55
2023/07/02 13:39:23;;;;;;;11.65;7.22;;;25.90;34.00;;;;;;5010284;28;44942;-57
2023/07/02 13:41:50;;;;;;;15.70;8.75;;;25.90;33.90;;;;;;5005754;28;45553;-56
2023/07/02 13:44:16;;;;;;;16.23;9.50;;;26.00;33.80;;;;;;5011365;28;46104;-56
2023/07/02 13:46:45;;;;;;;12.43;8.07;;;26.00;33.60;;;;;;4998927;28;45488;-54
2023/07/02 13:49:11;;;;;;;14.70;7.82;;;26.00;33.50;;;;;;5010537;28;45406;-52
2023/07/02 13:51:37;;;;;;;12.82;8.13;;;26.10;33.40;;;;;;5008762;28;44902;-53
2023/07/02 13:54:02;;;;;;;14.32;7.78;;;26.10;33.10;;;;;;5016395;28;46004;-51
2023/07/02 13:56:28;;;;;;;12.45;7.32;;;26.10;32.90;;;;;;5006482;28;46565;-56
2023/07/02 13:58:56;;;;;;;14.00;7.40;;;26.10;33.10;;;;;;5009501;28;46360;-54
2023/07/02 14:01:25;;;;;;;11.75;7.43;;;26.10;33.00;;;;;;4996814;28;45365;-52
2023/07/02 14:03:50;;;;;;;11.63;7.57;;;26.10;33.00;;;;;;5013385;28;45876;-55
2023/07/02 14:06:16;;;;;;;11.45;7.28;;;26.10;32.80;;;;;;5010889;28;45352;-57
2023/07/02 14:08:41;;;;;;;10.70;7.90;;;26.10;32.90;;;;;;5009672;28;45382;-52
2023/07/02 14:11:08;;;;;;;12.63;7.30;;;26.10;32.90;;;;;;5004274;28;46341;-55
2023/07/02 14:13:34;;;;;;;12.48;7.60;;;26.10;32.90;;;;;;5009059;28;45969;-54
2023/07/02 14:15:59;;;;;;;13.50;8.32;;;26.10;33.00;;;;;;5002633;28;45754;-54
2023/07/02 14:18:25;;;;;;;14.05;7.43;;;26.10;33.00;;;;;;5010290;28;44833;-53
2023/07/02 14:20:50;;;;;;;12.73;8.10;;;26.10;32.90;;;;;;4990607;28;45770;-53
2023/07/02 14:23:16;;;;;;;12.15;8.10;;;26.20;33.20;;;;;;5009769;28;46169;-55
2023/07/02 14:25:42;;;;;;;13.32;8.75;;;26.20;33.10;;;;;;5010294;28;44946;-52
2023/07/02 14:28:08;;;;;;;14.20;8.27;;;26.20;33.00;;;;;;5010319;28;45284;-56
2023/07/02 14:30:33;;;;;;;13.38;7.97;;;26.20;33.00;;;;;;5006646;28;45771;-54
2023/07/02 14:32:59;;;;;;;12.95;8.15;;;26.20;33.00;;;;;;5012154;28;46474;-53
2023/07/02 14:35:27;;;;;;;12.40;8.50;;;26.20;33.00;;;;;;5004426;28;45299;-53
2023/07/02 14:37:53;;;;;;;14.75;8.75;;;26.30;33.10;;;;;;5009724;28;44700;-53
2023/07/02 14:40:19;;;;;;;17.60;9.07;;;26.30;33.00;;;;;;5005143;28;45475;-54
2023/07/02 14:42:44;;;;;;;15.80;8.93;;;26.30;33.00;;;;;;5007289;28;46036;-57
2023/07/02 14:45:10;;;;;;;13.40;8.10;;;26.30;32.90;;;;;;4984967;28;44685;-57
2023/07/02 14:47:36;;;;;;;17.08;8.95;;;26.30;32.70;;;;;;5003096;28;45666;-57
2023/07/02 14:50:01;;;;;;;13.52;8.98;;;26.30;32.80;;;;;;5013182;28;45410;-55
2023/07/02 14:52:27;;;;;;;14.57;9.05;;;26.30;32.80;;;;;;4997046;28;45686;-59
2023/07/02 14:54:53;;;;;;;13.85;8.98;;;26.30;33.50;;;;;;5014263;28;45852;-55
2023/07/02 14:57:19;;;;;;;14.48;8.93;;;26.30;32.90;;;;;;5001992;28;45740;-58
2023/07/02 14:59:47;;;;;;;14.18;8.88;;;26.30;32.80;;;;;;5004103;28;45451;-60
2023/07/02 15:02:13;;;;;;;17.40;8.82;;;26.30;32.70;;;;;;5000304;28;46560;-53
2023/07/02 15:04:39;;;;;;;14.38;8.65;;;26.40;32.80;;;;;;5014550;28;45819;-57
2023/07/02 15:07:04;;;;;;;14.23;8.68;;;26.40;32.70;;;;;;5008870;28;45437;-54
2023/07/02 15:09:31;;;;;;;13.48;8.70;;;26.30;32.70;;;;;;5014895;28;45067;-53
2023/07/02 15:11:57;;;;;;;16.48;9.25;;;26.30;32.60;;;;;;5006135;28;47038;-57
2023/07/02 15:14:22;;;;;;;16.60;8.88;;;26.30;32.70;;;;;;5019405;28;45766;-52
2023/07/02 15:16:48;;;;;;;13.88;9.32;;;26.30;32.60;;;;;;5009614;28;45940;-53
2023/07/02 15:19:15;;;;;;;14.05;8.75;;;26.40;32.60;;;;;;4994726;28;45469;-53
2023/07/02 15:21:41;;;;;;;13.25;7.85;;;26.40;32.60;;;;;;5010283;28;45929;-58
2023/07/02 15:24:09;;;;;;;12.65;8.55;;;26.40;32.60;;;;;;5016925;28;44902;-56
2023/07/02 15:26:35;;;;;;;13.60;8.40;;;26.40;32.60;;;;;;5006617;28;45552;-52
2023/07/02 15:29:01;;;;;;;16.05;9.00;;;26.40;32.60;;;;;;5010125;28;45720;-60
2023/07/02 15:31:26;;;;;;;16.00;9.73;;;26.40;32.70;;;;;;5003287;28;46583;-58
2023/07/02 15:33:52;;;;;;;12.40;8.02;;;26.40;33.00;;;;;;5008035;28;45214;-57
2023/07/02 15:36:18;;;;;;;16.13;9.57;;;26.50;32.70;;;;;;5006722;28;45306;-50
2023/07/02 15:38:44;;;;;;;14.25;8.75;;;26.50;32.60;;;;;;4996219;28;45791;-55
2023/07/02 15:41:11;;;;;;;12.43;8.70;;;26.50;32.50;;;;;;5001696;28;46009;-51